CheckWX is a tool to help pilots better visualize weather data.  It is not intended as a substitute for an official pre-flight weather briefing.

17:29:54 UTC

FYKT METAR
Keetmanshoop Airport
Keetmanshoop, Namibia
Current

2 hours ago

FYKT 241500Z 21010KT CAVOK 35/M02 Q1015
Observed
Mar-24 @ 15:00 UTC
Wind
  • 210° at 10 KTS
Visibility
10,000+ meters
Flight Rules
VFR
Cloud Levels
  • Clear skies
Temperature
35°C / 95°F
Dewpoint
-2°C / 28°F
Humidity
9%
Altimeter
29.97" Hg
Pressure
1014.92 hPa
Previous

5 hours ago

FYKT 241200Z 24004KT CAVOK 34/M01 Q1016
Observed
Mar-24 @ 12:00 UTC
Wind
  • 240° at 4 KTS
Visibility
10,000+ meters
Flight Rules
VFR
Cloud Levels
  • Clear skies
Temperature
34°C / 93°F
Dewpoint
-1°C / 30°F
Humidity
11%
Altimeter
30" Hg
Pressure
1015.92 hPa
Previous

6 hours ago

FYKT 241100Z 24006KT CAVOK 33/M03 Q1017
Observed
Mar-24 @ 11:00 UTC
Wind
  • 240° at 6 KTS
Visibility
10,000+ meters
Flight Rules
VFR
Cloud Levels
  • Clear skies
Temperature
33°C / 91°F
Dewpoint
-3°C / 27°F
Humidity
10%
Altimeter
30.03" Hg
Pressure
1016.92 hPa